createdAt,value
2023-04-12T00:00:24.351Z,85.2514
2023-04-12T00:01:24.410Z,85.2702
2023-04-12T00:02:24.523Z,85.2309
2023-04-12T00:03:25.591Z,85.2101
2023-04-12T00:04:25.825Z,85.1952
2023-04-12T00:05:25.937Z,85.2048
2023-04-12T00:06:26.004Z,85.2380
2023-04-12T00:07:26.039Z,85.2457
2023-04-12T00:08:26.055Z,85.2366
2023-04-12T00:09:26.107Z,85.2546
2023-04-12T00:10:26.147Z,85.2314
2023-04-12T00:11:26.218Z,85.2387
2023-04-12T00:12:26.262Z,85.2601
2023-04-12T00:13:26.298Z,85.2962
2023-04-12T00:14:26.366Z,85.2990
2023-04-12T00:15:26.440Z,85.3222
2023-04-12T00:16:26.656Z,85.3634
2023-04-12T00:17:26.822Z,85.3847
2023-04-12T00:18:26.852Z,85.4119
2023-04-12T00:19:26.902Z,85.4464
2023-04-12T00:20:27.365Z,85.4449
2023-04-12T00:21:27.371Z,85.4438
2023-04-12T00:22:27.402Z,85.4884
2023-04-12T00:23:27.447Z,85.5146
2023-04-12T00:24:27.541Z,85.5738
2023-04-12T00:25:27.797Z,85.5934
2023-04-12T00:26:27.847Z,85.6214
2023-04-12T00:27:27.870Z,85.6679
2023-04-12T00:28:27.933Z,85.6369
2023-04-12T00:29:27.974Z,85.6096
2023-04-12T00:30:28.302Z,85.6618
2023-04-12T00:31:28.406Z,85.7254
2023-04-12T00:32:28.429Z,85.7279
2023-04-12T00:33:28.442Z,85.7423
2023-04-12T00:34:28.508Z,85.7464
2023-04-12T00:35:28.921Z,85.7042
2023-04-12T00:36:28.910Z,85.6616
2023-04-12T00:37:28.979Z,85.6281
2023-04-12T00:38:29.237Z,85.6389
2023-04-12T00:39:29.314Z,85.6633
2023-04-12T00:40:29.353Z,85.6654
2023-04-12T00:41:29.394Z,85.6709
2023-04-12T00:42:29.459Z,85.6507
2023-04-12T00:43:29.836Z,85.6158
2023-04-12T00:44:29.872Z,85.5722
2023-04-12T00:45:29.912Z,85.5630
2023-04-12T00:46:29.969Z,85.5406
2023-04-12T00:47:30.037Z,85.4674
2023-04-12T00:48:31.863Z,85.3979
2023-04-12T00:49:31.856Z,85.3253
2023-04-12T00:50:31.934Z,85.2724
2023-04-12T00:51:31.977Z,85.2272
2023-04-12T00:52:32.017Z,85.2026
2023-04-12T00:53:32.077Z,85.2046
2023-04-12T00:54:32.290Z,85.2178
2023-04-12T00:55:32.314Z,85.2070
2023-04-12T00:56:32.370Z,85.2149
2023-04-12T00:57:32.416Z,85.2365
2023-04-12T00:58:32.467Z,85.2400
2023-04-12T00:59:32.528Z,85.1976
2023-04-12T01:00:32.598Z,85.1883
2023-04-12T01:01:32.622Z,85.1985
2023-04-12T01:02:32.785Z,85.1705
2023-04-12T01:03:33.196Z,85.1083
2023-04-12T01:04:33.264Z,85.0658
2023-04-12T01:05:33.327Z,85.0380
2023-04-12T01:06:33.392Z,85.0745
2023-04-12T01:07:33.425Z,85.1087
2023-04-12T01:08:33.442Z,85.0885
2023-04-12T01:09:33.496Z,85.1288
2023-04-12T01:10:33.510Z,85.1923
2023-04-12T01:11:33.539Z,85.2575
2023-04-12T01:12:33.622Z,85.3281
2023-04-12T01:13:33.666Z,85.4056
2023-04-12T01:14:33.730Z,85.4968
2023-04-12T01:15:33.777Z,85.5472
2023-04-12T01:16:33.878Z,85.5509
2023-04-12T01:17:33.907Z,85.5993
2023-04-12T01:18:33.997Z,85.6503
2023-04-12T01:19:34.042Z,85.7483
2023-04-12T01:20:34.048Z,85.7993
2023-04-12T01:21:34.082Z,85.8082
2023-04-12T01:22:34.134Z,85.8412
2023-04-12T01:23:34.212Z,85.8603
2023-04-12T01:24:34.248Z,85.8597
2023-04-12T01:25:34.311Z,85.8209
2023-04-12T01:26:34.422Z,85.8085
2023-04-12T01:27:34.496Z,85.8010
2023-04-12T01:28:34.553Z,85.7900
2023-04-12T01:29:34.608Z,85.7713
2023-04-12T01:30:34.657Z,85.8015
2023-04-12T01:31:34.750Z,85.7768
2023-04-12T01:32:34.808Z,85.7392
2023-04-12T01:33:34.816Z,85.7397
2023-04-12T01:34:34.865Z,85.7726
2023-04-12T01:35:35.458Z,85.8135
2023-04-12T01:36:35.944Z,85.8713
2023-04-12T01:37:36.007Z,85.9265
2023-04-12T01:38:36.047Z,85.9115
2023-04-12T01:39:36.107Z,85.8969
2023-04-12T01:40:36.178Z,85.8735
2023-04-12T01:41:36.243Z,85.8780
2023-04-12T01:42:36.272Z,85.8756
2023-04-12T01:43:36.655Z,85.8389
2023-04-12T01:44:36.743Z,85.8020
2023-04-12T01:45:36.791Z,85.7735
2023-04-12T01:46:36.862Z,85.7814
2023-04-12T01:47:36.914Z,85.8203
2023-04-12T01:48:37.188Z,85.9044
2023-04-12T01:49:37.259Z,85.9336
2023-04-12T01:50:37.327Z,85.9257
2023-04-12T01:51:37.382Z,85.9268
2023-04-12T01:52:37.437Z,85.9312
2023-04-12T01:53:37.491Z,85.9394
2023-04-12T01:54:37.569Z,85.9706
2023-04-12T01:55:37.603Z,86.0033
2023-04-12T01:56:39.579Z,86.0245
2023-04-12T01:57:40.472Z,86.0297
2023-04-12T01:58:40.719Z,86.0428
2023-04-12T01:59:40.792Z,86.0978
2023-04-12T02:00:40.823Z,86.1378
2023-04-12T02:01:41.170Z,86.1237
2023-04-12T02:02:41.453Z,86.0947
2023-04-12T02:03:41.653Z,86.0901
2023-04-12T02:04:41.756Z,86.0813
2023-04-12T02:05:41.852Z,86.0820
2023-04-12T02:06:42.146Z,86.1042
2023-04-12T02:07:42.188Z,86.1104
2023-04-12T02:08:42.545Z,86.0851
2023-04-12T02:09:42.628Z,86.1024
2023-04-12T02:10:42.699Z,86.1465
2023-04-12T02:11:42.768Z,86.1984
2023-04-12T02:12:42.802Z,86.2003
2023-04-12T02:13:42.878Z,86.1895
2023-04-12T02:14:42.957Z,86.1888
2023-04-12T02:15:43.003Z,86.1862
2023-04-12T02:16:43.080Z,86.2019
2023-04-12T02:17:43.166Z,86.2186
2023-04-12T02:18:43.203Z,86.2079
2023-04-12T02:19:43.233Z,86.2025
2023-04-12T02:20:43.326Z,86.1791
2023-04-12T02:21:43.423Z,86.1643
2023-04-12T02:22:43.444Z,86.1659
2023-04-12T02:23:43.741Z,86.1726
2023-04-12T02:24:43.910Z,86.1863
2023-04-12T02:25:43.949Z,86.1998
2023-04-12T02:26:43.990Z,86.2072
2023-04-12T02:27:44.036Z,86.2207
2023-04-12T02:28:44.105Z,86.2342
2023-04-12T02:29:44.170Z,86.2326
2023-04-12T02:30:44.271Z,86.2325
2023-04-12T02:31:44.349Z,86.2338
2023-04-12T02:32:44.439Z,86.2350
2023-04-12T02:33:44.451Z,86.2418
2023-04-12T02:34:44.546Z,86.2175
2023-04-12T02:35:44.688Z,86.1918
2023-04-12T02:36:44.769Z,86.1662
2023-04-12T02:37:44.810Z,86.1432
2023-04-12T02:38:45.386Z,86.0764
2023-04-12T02:39:45.426Z,85.9781
2023-04-12T02:40:45.510Z,85.9148
2023-04-12T02:41:45.583Z,85.8752
2023-04-12T02:42:46.852Z,85.8507
2023-04-12T02:43:46.900Z,85.8469
2023-04-12T02:44:46.964Z,85.8586
2023-04-12T02:45:47.023Z,85.8746
2023-04-12T02:46:47.079Z,85.8792
2023-04-12T02:47:47.157Z,85.8973
2023-04-12T02:48:47.435Z,85.9323
2023-04-12T02:49:47.529Z,85.9097
2023-04-12T02:50:47.987Z,85.8591
2023-04-12T02:51:48.152Z,85.8401
2023-04-12T02:52:48.202Z,85.8248
2023-04-12T02:53:48.241Z,85.8004
2023-04-12T02:54:48.321Z,85.7687
2023-04-12T02:55:48.386Z,85.7647
2023-04-12T02:56:48.445Z,85.7892
2023-04-12T02:57:48.518Z,85.7908
2023-04-12T02:58:48.789Z,85.7755
2023-04-12T02:59:48.908Z,85.7558
2023-04-12T03:00:48.956Z,85.7479
2023-04-12T03:01:49.101Z,85.7487
2023-04-12T03:02:49.204Z,85.7981
2023-04-12T03:03:49.622Z,85.8241
2023-04-12T03:04:49.783Z,85.8518
2023-04-12T03:05:49.835Z,85.8837
2023-04-12T03:06:50.095Z,85.8906
2023-04-12T03:07:50.195Z,85.8862
2023-04-12T03:08:50.220Z,85.8761
2023-04-12T03:09:50.284Z,85.8529
2023-04-12T03:10:50.316Z,85.8560
2023-04-12T03:11:50.363Z,85.8800
2023-04-12T03:12:50.424Z,85.9196
2023-04-12T03:13:50.476Z,85.9854
2023-04-12T03:14:50.543Z,86.0317
2023-04-12T03:15:50.596Z,86.0275
2023-04-12T03:16:50.937Z,86.0083
2023-04-12T03:17:50.999Z,86.0372
2023-04-12T03:18:51.039Z,86.0982
2023-04-12T03:19:51.108Z,86.1818
2023-04-12T03:20:51.157Z,86.2289
2023-04-12T03:21:51.232Z,86.2947
2023-04-12T03:22:51.258Z,86.3690
2023-04-12T03:23:51.353Z,86.4057
2023-04-12T03:24:51.379Z,86.4305
2023-04-12T03:25:51.467Z,86.4662
2023-04-12T03:26:51.510Z,86.4801
2023-04-12T03:27:51.565Z,86.4733
2023-04-12T03:28:51.592Z,86.4662
2023-04-12T03:29:51.903Z,86.5045
2023-04-12T03:30:51.985Z,86.5313
2023-04-12T03:31:52.010Z,86.5585
2023-04-12T03:32:52.109Z,86.5509
2023-04-12T03:33:52.142Z,86.5636
2023-04-12T03:34:52.231Z,86.5885
2023-04-12T03:35:52.318Z,86.5751
2023-04-12T03:36:52.421Z,86.6026
2023-04-12T03:37:52.482Z,86.5872
2023-04-12T03:38:52.582Z,86.5807
2023-04-12T03:39:52.633Z,86.6075
2023-04-12T03:40:52.704Z,86.6095
2023-04-12T03:41:52.736Z,86.5891
2023-04-12T03:42:52.811Z,86.5640
2023-04-12T03:43:54.652Z,86.5665
2023-04-12T03:44:54.745Z,86.5764
2023-04-12T03:45:54.797Z,86.5818
2023-04-12T03:46:55.117Z,86.5893
2023-04-12T03:47:55.269Z,86.5966
2023-04-12T03:48:55.363Z,86.6169
2023-04-12T03:50:10.348Z,86.6379
2023-04-12T03:50:57.856Z,86.6236
2023-04-12T03:51:57.925Z,86.5701
2023-04-12T03:52:57.999Z,86.5248
2023-04-12T03:53:58.483Z,86.5067
2023-04-12T03:54:58.901Z,86.5118
2023-04-12T03:55:58.992Z,86.5007
2023-04-12T03:56:59.085Z,86.4845
2023-04-12T03:57:59.192Z,86.5082
2023-04-12T03:59:00.960Z,86.5470
2023-04-12T04:00:01.049Z,86.5572
2023-04-12T04:01:01.078Z,86.5448
2023-04-12T04:02:01.186Z,86.5095
2023-04-12T04:03:01.289Z,86.4802
2023-04-12T04:04:01.898Z,86.4833
2023-04-12T04:05:02.330Z,86.4980
2023-04-12T04:06:02.463Z,86.4911
2023-04-12T04:07:02.523Z,86.4542
2023-04-12T04:08:02.767Z,86.4282
2023-04-12T04:09:03.056Z,86.4152
2023-04-12T04:10:03.122Z,86.4204
2023-04-12T04:11:03.198Z,86.4447
2023-04-12T04:12:03.261Z,86.4838
2023-04-12T04:13:03.316Z,86.5182
2023-04-12T04:14:03.477Z,86.5395
2023-04-12T04:15:03.538Z,86.5578
2023-04-12T04:16:03.636Z,86.5662
2023-04-12T04:17:03.762Z,86.5801
2023-04-12T04:18:03.847Z,86.5845
2023-04-12T04:19:03.882Z,86.5900
2023-04-12T04:20:03.951Z,86.6136
2023-04-12T04:21:04.027Z,86.6316
2023-04-12T04:22:04.166Z,86.6562
2023-04-12T04:23:04.260Z,86.6509
2023-04-12T04:24:04.576Z,86.6226
2023-04-12T04:25:04.678Z,86.6216
2023-04-12T04:26:04.785Z,86.6160
2023-04-12T04:27:04.857Z,86.5908
2023-04-12T04:28:04.957Z,86.5671
2023-04-12T04:29:05.077Z,86.5383
2023-04-12T04:30:05.174Z,86.5239
2023-04-12T04:31:05.242Z,86.4978
2023-04-12T04:32:05.432Z,86.4286
2023-04-12T04:33:05.568Z,86.3728
2023-04-12T04:34:05.795Z,86.3318
2023-04-12T04:35:05.893Z,86.2752
2023-04-12T04:36:06.018Z,86.1958
2023-04-12T04:37:06.094Z,86.1374
2023-04-12T04:38:06.187Z,86.1024
2023-04-12T04:39:06.295Z,86.0884
2023-04-12T04:40:06.351Z,86.0880
2023-04-12T04:41:06.414Z,86.0831
2023-04-12T04:42:06.585Z,86.0775
2023-04-12T04:43:08.226Z,86.0572
2023-04-12T04:44:08.416Z,86.0642
2023-04-12T04:45:08.509Z,86.0887
2023-04-12T04:46:08.636Z,86.1099
2023-04-12T04:47:08.973Z,86.1363
2023-04-12T04:48:09.081Z,86.1741
2023-04-12T04:49:09.161Z,86.1631
2023-04-12T04:50:09.276Z,86.1590
2023-04-12T04:51:09.355Z,86.1684
2023-04-12T04:52:09.440Z,86.2013
2023-04-12T04:53:09.541Z,86.2353
2023-04-12T04:54:09.651Z,86.2589
2023-04-12T04:55:11.227Z,86.2911
2023-04-12T04:56:11.683Z,86.3082
2023-04-12T04:57:11.742Z,86.3512
2023-04-12T04:58:11.837Z,86.3443
2023-04-12T04:59:12.144Z,86.3073
2023-04-12T05:00:12.260Z,86.2723
2023-04-12T05:01:12.467Z,86.2625
2023-04-12T05:02:12.565Z,86.2452
2023-04-12T05:03:12.751Z,86.2214
2023-04-12T05:04:12.851Z,86.1721
2023-04-12T05:05:12.926Z,86.1220
2023-04-12T05:06:13.064Z,86.0901
2023-04-12T05:07:13.145Z,86.0763
2023-04-12T05:08:13.239Z,86.0844
2023-04-12T05:09:13.313Z,86.0926
2023-04-12T05:10:13.452Z,86.1107
2023-04-12T05:11:13.532Z,86.1251
2023-04-12T05:12:13.624Z,86.1141
2023-04-12T05:13:13.717Z,86.1001
2023-04-12T05:14:14.044Z,86.1072
2023-04-12T05:15:14.160Z,86.1236
2023-04-12T05:16:14.263Z,86.1679
2023-04-12T05:17:14.327Z,86.2407
2023-04-12T05:18:14.461Z,86.3046
2023-04-12T05:19:14.547Z,86.3529
2023-04-12T05:20:14.693Z,86.3950
2023-04-12T05:21:14.818Z,86.4580
2023-04-12T05:22:14.924Z,86.4803
2023-04-12T05:23:15.012Z,86.5134
2023-04-12T05:24:15.364Z,86.6077
2023-04-12T05:25:15.510Z,86.6496
2023-04-12T05:26:15.593Z,86.6323
2023-04-12T05:27:15.684Z,86.6336
2023-04-12T05:28:15.790Z,86.6466
2023-04-12T05:29:16.106Z,86.6600
2023-04-12T05:30:16.280Z,86.6818
2023-04-12T05:31:16.384Z,86.7136
2023-04-12T05:32:16.459Z,86.7316
2023-04-12T05:33:16.578Z,86.7207
2023-04-12T05:34:16.681Z,86.7239
2023-04-12T05:35:16.884Z,86.7388
2023-04-12T05:36:16.940Z,86.7768
2023-04-12T05:37:17.059Z,86.7617
2023-04-12T05:38:17.164Z,86.7263
2023-04-12T05:39:19.383Z,86.6896
2023-04-12T05:40:20.646Z,86.6642
2023-04-12T05:41:20.753Z,86.6326
2023-04-12T05:42:20.826Z,86.6109
2023-04-12T05:43:20.941Z,86.6136
2023-04-12T05:44:21.213Z,86.6238
2023-04-12T05:45:21.321Z,86.6222
2023-04-12T05:46:21.471Z,86.6407
2023-04-12T05:47:21.618Z,86.6697
2023-04-12T05:48:21.799Z,86.6954
2023-04-12T05:49:22.088Z,86.6774
2023-04-12T05:50:22.207Z,86.6656
2023-04-12T05:51:34.052Z,86.6559
2023-04-12T05:52:25.478Z,86.6474
2023-04-12T05:53:25.580Z,86.6242
2023-04-12T05:54:25.955Z,86.5892
2023-04-12T05:55:26.038Z,86.5186
2023-04-12T05:56:26.139Z,86.4478
2023-04-12T05:57:26.231Z,86.4018
2023-04-12T05:58:26.305Z,86.3783
2023-04-12T05:59:26.501Z,86.3599
2023-04-12T06:00:26.628Z,86.3561
2023-04-12T06:01:26.706Z,86.3525
2023-04-12T06:02:27.238Z,86.3424
2023-04-12T06:03:27.492Z,86.3251
2023-04-12T06:04:38.374Z,86.2729
2023-04-12T06:05:30.264Z,86.2288
2023-04-12T06:06:30.454Z,86.1907
2023-04-12T06:07:30.975Z,86.1601
2023-04-12T06:08:31.109Z,86.1395
2023-04-12T06:09:31.198Z,86.1247
2023-04-12T06:10:31.360Z,86.1191
2023-04-12T06:11:31.431Z,86.1173
2023-04-12T06:12:31.528Z,86.1206
2023-04-12T06:13:31.595Z,86.0821
2023-04-12T06:14:31.714Z,86.0015
2023-04-12T06:15:31.872Z,85.8858
2023-04-12T06:16:32.090Z,85.7903
2023-04-12T06:17:32.238Z,85.7241
2023-04-12T06:18:32.330Z,85.6697
2023-04-12T06:19:32.461Z,85.6556
2023-04-12T06:20:32.594Z,85.6076
2023-04-12T06:21:32.659Z,85.5269
2023-04-12T06:22:33.004Z,85.4584
2023-04-12T06:23:33.139Z,85.3826
2023-04-12T06:24:33.438Z,85.3306
2023-04-12T06:25:33.537Z,85.3134
2023-04-12T06:26:39.742Z,85.3066
2023-04-12T06:27:36.131Z,85.2923
2023-04-12T06:28:36.257Z,85.2906
2023-04-12T06:29:36.355Z,85.2863
2023-04-12T06:30:36.465Z,85.2482
2023-04-12T06:31:36.629Z,85.2136
2023-04-12T06:32:36.828Z,85.1526
2023-04-12T06:33:36.905Z,85.0779
2023-04-12T06:34:37.009Z,85.0092
2023-04-12T06:35:37.193Z,84.9648
2023-04-12T06:36:37.297Z,84.8898
2023-04-12T06:37:37.369Z,84.8268
2023-04-12T06:38:37.443Z,84.7651
2023-04-12T06:39:37.594Z,84.7266
2023-04-12T06:40:37.709Z,84.6807
2023-04-12T06:41:37.793Z,84.5768
2023-04-12T06:42:37.904Z,84.4918
2023-04-12T06:43:38.046Z,84.3136
2023-04-12T06:44:38.445Z,84.1555
2023-04-12T06:45:38.548Z,84.0432
2023-04-12T06:46:38.649Z,83.8330
2023-04-12T06:47:38.994Z,83.5986
2023-04-12T06:48:39.061Z,83.5146
2023-04-12T06:49:39.219Z,83.4368
2023-04-12T06:50:39.289Z,83.1377
2023-04-12T06:51:39.352Z,82.7683
2023-04-12T06:52:39.511Z,82.5678
2023-04-12T06:53:39.629Z,82.3826
2023-04-12T06:54:39.947Z,82.3304
2023-04-12T06:55:40.062Z,82.2959
2023-04-12T06:56:40.159Z,82.2351
2023-04-12T06:57:40.346Z,82.1114
2023-04-12T06:58:40.471Z,81.6676
2023-04-12T06:59:40.612Z,81.3121
2023-04-12T07:00:40.967Z,81.1207
2023-04-12T07:01:42.305Z,80.9388
2023-04-12T07:02:43.707Z,80.8562
2023-04-12T07:03:44.037Z,80.8562
2023-04-12T07:04:44.171Z,80.8250
2023-04-12T07:05:44.303Z,80.8130
2023-04-12T07:06:44.566Z,80.6853
2023-04-12T07:07:44.688Z,80.4617
2023-04-12T07:08:44.770Z,80.4251
2023-04-12T07:09:44.918Z,80.3123
2023-04-12T07:10:45.067Z,80.3115
2023-04-12T07:11:45.224Z,80.2571
2023-04-12T07:12:45.329Z,79.7682
2023-04-12T07:13:45.411Z,79.6597
2023-04-12T07:14:45.495Z,79.6983
2023-04-12T07:15:45.635Z,79.5142
2023-04-12T07:16:45.827Z,79.1652
2023-04-12T07:17:45.984Z,78.9917
2023-04-12T07:18:46.105Z,78.4983
2023-04-12T07:19:46.200Z,78.2403
2023-04-12T07:20:46.386Z,78.0496
2023-04-12T07:21:46.438Z,78.1023
2023-04-12T07:22:46.548Z,78.2160
2023-04-12T07:23:46.707Z,78.3343
2023-04-12T07:24:46.788Z,78.4089
2023-04-12T07:25:46.885Z,78.2857
2023-04-12T07:26:47.005Z,78.0800
2023-04-12T07:27:47.078Z,77.8585
2023-04-12T07:28:47.522Z,77.8761
2023-04-12T07:29:47.590Z,77.8177
2023-04-12T07:30:47.811Z,77.8542
2023-04-12T07:31:47.917Z,77.8858
2023-04-12T07:32:48.080Z,77.5907
2023-04-12T07:33:48.317Z,77.5643
2023-04-12T07:34:48.467Z,77.5243
2023-04-12T07:35:48.605Z,77.5378
2023-04-12T07:36:48.687Z,77.5281
2023-04-12T07:37:48.802Z,77.4865
2023-04-12T07:38:48.878Z,77.2436
2023-04-12T07:39:49.078Z,76.9455
2023-04-12T07:40:50.208Z,76.6388
2023-04-12T07:41:50.433Z,76.2528
2023-04-12T07:42:50.606Z,76.0396
2023-04-12T07:43:50.725Z,75.8930
2023-04-12T07:44:50.856Z,75.5806
2023-04-12T07:45:50.991Z,75.3742
2023-04-12T07:46:51.036Z,75.2023
2023-04-12T07:47:51.143Z,74.8768
2023-04-12T07:48:51.367Z,74.5996
2023-04-12T07:49:51.419Z,74.5233
2023-04-12T07:50:51.555Z,74.2685
2023-04-12T07:51:51.652Z,73.9294
2023-04-12T07:52:51.970Z,73.9181
2023-04-12T07:53:52.090Z,73.9542
2023-04-12T07:54:52.183Z,73.5601
2023-04-12T07:55:52.297Z,73.1584
2023-04-12T07:56:52.339Z,72.9463
2023-04-12T07:57:52.479Z,72.4306
2023-04-12T07:58:52.576Z,72.4377
2023-04-12T07:59:52.691Z,72.3385
2023-04-12T08:00:52.761Z,72.4301
2023-04-12T08:01:52.866Z,72.1245
2023-04-12T08:02:53.149Z,72.0345
2023-04-12T08:03:53.491Z,71.9831
2023-04-12T08:04:53.614Z,71.9669
2023-04-12T08:05:53.895Z,71.8609
2023-04-12T08:06:54.097Z,71.5598
2023-04-12T08:07:54.246Z,71.0777
2023-04-12T08:08:54.333Z,70.5657
2023-04-12T08:09:54.497Z,70.0255
2023-04-12T08:10:55.022Z,70.1683
2023-04-12T08:11:55.113Z,70.1743
2023-04-12T08:12:55.209Z,70.1711
2023-04-12T08:13:55.592Z,70.1150
2023-04-12T08:14:55.732Z,69.7600
2023-04-12T08:15:55.817Z,69.1247
2023-04-12T08:16:55.967Z,68.7067
2023-04-12T08:17:56.090Z,67.9951
2023-04-12T08:18:56.177Z,67.4675
2023-04-12T08:19:56.260Z,67.5748
2023-04-12T08:20:56.386Z,67.5722
2023-04-12T08:21:56.469Z,67.5456
2023-04-12T08:22:56.530Z,66.9023
2023-04-12T08:23:56.832Z,66.6646
2023-04-12T08:24:57.191Z,66.2504
2023-04-12T08:25:57.310Z,66.3448
2023-04-12T08:26:57.378Z,66.1552
2023-04-12T08:27:57.492Z,66.0670
2023-04-12T08:28:57.616Z,66.0829
2023-04-12T08:29:57.740Z,66.0195
2023-04-12T08:30:57.940Z,65.9025
2023-04-12T08:31:58.074Z,65.7708
2023-04-12T08:32:58.251Z,65.5849
2023-04-12T08:33:58.620Z,64.6745
2023-04-12T08:34:58.792Z,63.7882
2023-04-12T08:35:58.924Z,64.1537
2023-04-12T08:36:59.233Z,63.9233
2023-04-12T08:37:59.304Z,63.6978
2023-04-12T08:38:59.406Z,61.9301
2023-04-12T08:39:59.488Z,62.0641
2023-04-12T08:40:59.648Z,62.4227
2023-04-12T08:41:59.734Z,62.5687
2023-04-12T08:42:59.876Z,62.8264
2023-04-12T08:44:00.318Z,63.0316
2023-04-12T08:45:00.861Z,63.0446
2023-04-12T08:46:00.992Z,62.7724
2023-04-12T08:47:01.230Z,62.3287
2023-04-12T08:48:01.479Z,62.0004
2023-04-12T08:49:01.704Z,62.1168
2023-04-12T08:50:01.912Z,61.1673
2023-04-12T08:51:01.996Z,59.7283
2023-04-12T08:52:02.226Z,59.2371
2023-04-12T08:53:02.256Z,59.6369
2023-04-12T08:54:02.376Z,60.1881
2023-04-12T08:55:02.545Z,60.2250
2023-04-12T08:56:02.629Z,60.2151
2023-04-12T08:57:02.749Z,59.7963
2023-04-12T08:58:02.842Z,58.2391
2023-04-12T08:59:02.941Z,57.1231
2023-04-12T09:00:03.238Z,57.5122
2023-04-12T09:01:03.317Z,57.1353
2023-04-12T09:02:03.590Z,56.9758
2023-04-12T09:03:03.892Z,56.3514
2023-04-12T09:04:04.624Z,54.5938
2023-04-12T09:05:05.093Z,54.1107
2023-04-12T09:06:05.210Z,53.1926
2023-04-12T09:07:05.521Z,52.4675
2023-04-12T09:08:05.621Z,52.4952
2023-04-12T09:09:07.939Z,53.1754
2023-04-12T09:10:08.334Z,52.2957
2023-04-12T09:11:08.430Z,51.8517
2023-04-12T09:12:08.545Z,51.7872
2023-04-12T09:13:08.648Z,51.8676
2023-04-12T09:14:08.775Z,51.7893
2023-04-12T09:15:08.843Z,51.9884
2023-04-12T09:16:08.982Z,51.8243
2023-04-12T09:17:09.220Z,51.2437
2023-04-12T09:18:09.501Z,50.2785
2023-04-12T09:19:09.654Z,50.2223
2023-04-12T09:20:09.724Z,51.0152
2023-04-12T09:21:09.855Z,51.0039
2023-04-12T09:22:09.973Z,50.8354
2023-04-12T09:23:10.122Z,50.4554
2023-04-12T09:24:13.322Z,50.6310
2023-04-12T09:25:11.019Z,50.3733
2023-04-12T09:26:11.125Z,48.4669
2023-04-12T09:27:11.268Z,48.8649
2023-04-12T09:28:11.406Z,48.6365
2023-04-12T09:29:11.510Z,47.6356
2023-04-12T09:30:11.778Z,47.1397
2023-04-12T09:31:12.025Z,46.8498
2023-04-12T09:32:12.086Z,47.0226
2023-04-12T09:33:12.182Z,47.5214
2023-04-12T09:34:12.302Z,47.5571
2023-04-12T09:35:12.408Z,47.5221
2023-04-12T09:36:12.590Z,47.2884
2023-04-12T09:37:12.713Z,47.4489
2023-04-12T09:38:12.803Z,46.7850
2023-04-12T09:39:12.883Z,46.4633
2023-04-12T09:40:12.994Z,45.8180
2023-04-12T09:41:13.091Z,45.0945
2023-04-12T09:42:29.950Z,45.5921
2023-04-12T09:43:15.718Z,45.7609
2023-04-12T09:44:15.889Z,45.3686
2023-04-12T09:45:16.025Z,45.7333
2023-04-12T09:46:16.190Z,45.5526
2023-04-12T09:47:16.311Z,44.6204
2023-04-12T09:48:16.559Z,44.6114
2023-04-12T09:49:16.647Z,44.3008
2023-04-12T09:50:16.741Z,44.8931
2023-04-12T09:51:16.914Z,44.7342
2023-04-12T09:52:17.024Z,44.6953
2023-04-12T09:53:17.157Z,45.5993
2023-04-12T09:54:17.329Z,46.1931
2023-04-12T09:55:17.436Z,46.4257
2023-04-12T09:56:17.546Z,47.0720
2023-04-12T09:57:17.633Z,46.9110
2023-04-12T09:58:17.834Z,46.5176
2023-04-12T09:59:17.969Z,46.6941
2023-04-12T10:00:18.380Z,46.7691
2023-04-12T10:01:18.660Z,46.1647
2023-04-12T10:02:18.997Z,45.7416
2023-04-12T10:03:19.354Z,45.8645
2023-04-12T10:04:19.687Z,45.5351
2023-04-12T10:05:20.099Z,45.6534
2023-04-12T10:06:20.288Z,45.8580
2023-04-12T10:07:20.370Z,46.3922
2023-04-12T10:08:20.517Z,46.1633
2023-04-12T10:09:20.629Z,46.0556
2023-04-12T10:10:20.826Z,45.6498
2023-04-12T10:11:21.028Z,45.3158
2023-04-12T10:12:21.182Z,45.4590
2023-04-12T10:13:21.257Z,45.7795
2023-04-12T10:14:21.359Z,45.2609
2023-04-12T10:15:21.551Z,45.2369
2023-04-12T10:16:21.701Z,45.7341
2023-04-12T10:17:21.868Z,45.8382
2023-04-12T10:18:21.922Z,45.9146
2023-04-12T10:19:22.043Z,45.6899
2023-04-12T10:20:22.998Z,45.3767
2023-04-12T10:21:24.214Z,45.0479
2023-04-12T10:22:24.273Z,45.0851
2023-04-12T10:23:24.377Z,45.2124
2023-04-12T10:24:24.455Z,45.2587
2023-04-12T10:25:24.624Z,45.0252
2023-04-12T10:26:24.804Z,44.4400
2023-04-12T10:27:24.894Z,44.5571
2023-04-12T10:28:24.988Z,44.1164
2023-04-12T10:29:25.098Z,43.4340
2023-04-12T10:30:25.205Z,43.1249
2023-04-12T10:31:25.382Z,43.5145
2023-04-12T10:32:25.503Z,43.6593
2023-04-12T10:33:25.679Z,43.8391
2023-04-12T10:34:25.905Z,43.6563
2023-04-12T10:35:26.002Z,43.2017
2023-04-12T10:36:26.217Z,43.7713
2023-04-12T10:37:26.310Z,44.0034
2023-04-12T10:38:26.436Z,43.8094
2023-04-12T10:39:26.574Z,43.8393
2023-04-12T10:40:26.692Z,43.8235
2023-04-12T10:41:26.798Z,43.8649
2023-04-12T10:42:26.971Z,43.3280
2023-04-12T10:43:27.178Z,44.0389
2023-04-12T10:44:27.440Z,44.5830
2023-04-12T10:45:27.610Z,44.9927
2023-04-12T10:46:27.795Z,45.1110
2023-04-12T10:47:28.094Z,45.1994
2023-04-12T10:48:28.281Z,45.4922
2023-04-12T10:49:28.403Z,46.2880
2023-04-12T10:50:28.558Z,46.4929
2023-04-12T10:51:28.827Z,46.7130
2023-04-12T10:52:28.999Z,46.7484
2023-04-12T10:53:29.101Z,46.9323
2023-04-12T10:54:29.232Z,46.2047
2023-04-12T10:55:29.376Z,45.0565
2023-04-12T10:56:31.565Z,45.1693
2023-04-12T10:57:32.469Z,45.4406
2023-04-12T10:58:32.603Z,45.6251
2023-04-12T10:59:46.982Z,45.7751
2023-04-12T11:00:35.279Z,45.6364
2023-04-12T11:01:37.891Z,45.5152
2023-04-12T11:02:35.703Z,45.5526
2023-04-12T11:03:35.954Z,45.6564
2023-04-12T11:04:36.204Z,45.7031
2023-04-12T11:05:36.468Z,45.7798
2023-04-12T11:06:36.585Z,45.8122
2023-04-12T11:07:36.728Z,46.1733
2023-04-12T11:08:36.837Z,46.2181
2023-04-12T11:09:36.989Z,46.4045
2023-04-12T11:10:37.126Z,46.4681
2023-04-12T11:11:37.279Z,46.2638
2023-04-12T11:12:37.431Z,46.1868
2023-04-12T11:13:37.560Z,45.9279
2023-04-12T11:14:37.688Z,46.4215
2023-04-12T11:15:37.836Z,46.6976
2023-04-12T11:16:37.999Z,47.2824
2023-04-12T11:17:38.276Z,47.6302
2023-04-12T11:18:38.480Z,47.9341
2023-04-12T11:19:38.607Z,48.3676
2023-04-12T11:20:38.725Z,48.4980
2023-04-12T11:21:38.901Z,48.9618
2023-04-12T11:22:39.053Z,49.4013
2023-04-12T11:23:39.134Z,50.0202
2023-04-12T11:24:39.316Z,50.8271
2023-04-12T11:25:39.589Z,51.7525
2023-04-12T11:26:39.782Z,52.4836
2023-04-12T11:27:39.916Z,53.3806
2023-04-12T11:28:40.084Z,53.4600
2023-04-12T11:29:40.168Z,52.5516
2023-04-12T11:30:40.329Z,51.9367
2023-04-12T11:31:40.479Z,51.7961
2023-04-12T11:32:40.698Z,51.5549
2023-04-12T11:33:40.916Z,51.6641
2023-04-12T11:34:41.018Z,51.6318
2023-04-12T11:35:41.135Z,51.3538
2023-04-12T11:36:41.266Z,50.8644
2023-04-12T11:37:41.397Z,50.4730
2023-04-12T11:38:41.612Z,49.9887
2023-04-12T11:39:41.804Z,48.7676
2023-04-12T11:40:41.925Z,48.0235
2023-04-12T11:41:42.093Z,47.8914
2023-04-12T11:42:42.243Z,47.6720
2023-04-12T11:43:42.369Z,47.9523
2023-04-12T11:44:56.373Z,48.2355
2023-04-12T11:45:45.325Z,48.1628
2023-04-12T11:46:45.495Z,48.7482
2023-04-12T11:47:45.628Z,48.8078
2023-04-12T11:48:45.750Z,49.1733
2023-04-12T11:49:45.913Z,49.7362
2023-04-12T11:50:48.464Z,51.0492
2023-04-12T11:51:49.647Z,51.1626
2023-04-12T11:52:49.817Z,51.3647
2023-04-12T11:53:49.974Z,51.5256
2023-04-12T11:54:50.134Z,51.9743
2023-04-12T11:55:50.266Z,52.2390
2023-04-12T11:56:50.586Z,52.6670
2023-04-12T11:57:50.746Z,53.0145
2023-04-12T11:58:50.887Z,53.6551
2023-04-12T11:59:51.009Z,54.3091
2023-04-12T12:00:51.148Z,54.6539
2023-04-12T12:01:51.365Z,55.0168
2023-04-12T12:03:52.899Z,55.8462
2023-04-12T12:04:53.424Z,55.9697
2023-04-12T12:05:53.809Z,56.7882
2023-04-12T12:06:54.224Z,56.9516
2023-04-12T12:07:54.433Z,56.4094
2023-04-12T12:08:54.551Z,55.7053